sensor_id;sensor_type;location;lat;lon;timestamp;pressure;altitude;pressure_sealevel;temperature;humidity
72909;BME280;61051;62.624;17.950;2023-09-07T00:00:07;102529.25;;;6.52;100.00
72909;BME280;61051;62.624;17.950;2023-09-07T00:02:36;102525.29;;;6.54;100.00
72909;BME280;61051;62.624;17.950;2023-09-07T00:05:05;102520.34;;;6.57;99.63
72909;BME280;61051;62.624;17.950;2023-09-07T00:07:34;102519.58;;;6.50;99.07
72909;BME280;61051;62.624;17.950;2023-09-07T00:10:03;102517.79;;;6.53;99.48
72909;BME280;61051;62.624;17.950;2023-09-07T00:12:31;102513.43;;;6.36;99.54
72909;BME280;61051;62.624;17.950;2023-09-07T00:14:59;102505.25;;;6.35;99.85
72909;BME280;61051;62.624;17.950;2023-09-07T00:17:27;102501.87;;;6.47;100.00
72909;BME280;61051;62.624;17.950;2023-09-07T00:19:56;102497.81;;;6.34;100.00
72909;BME280;61051;62.624;17.950;2023-09-07T00:22:24;102499.04;;;6.33;99.47
72909;BME280;61051;62.624;17.950;2023-09-07T00:24:53;102498.45;;;6.22;97.30
72909;BME280;61051;62.624;17.950;2023-09-07T00:27:21;102493.35;;;6.12;99.01
72909;BME280;61051;62.624;17.950;2023-09-07T00:29:50;102491.80;;;6.10;99.81
72909;BME280;61051;62.624;17.950;2023-09-07T00:32:18;102493.88;;;6.08;100.00
72909;BME280;61051;62.624;17.950;2023-09-07T00:34:48;102498.29;;;6.26;100.00
72909;BME280;61051;62.624;17.950;2023-09-07T00:37:17;102499.16;;;6.14;100.00
72909;BME280;61051;62.624;17.950;2023-09-07T00:39:45;102497.24;;;6.10;100.00
72909;BME280;61051;62.624;17.950;2023-09-07T00:42:13;102490.83;;;5.99;100.00
72909;BME280;61051;62.624;17.950;2023-09-07T00:44:41;102484.92;;;6.10;100.00
72909;BME280;61051;62.624;17.950;2023-09-07T00:47:10;102487.14;;;6.13;100.00
72909;BME280;61051;62.624;17.950;2023-09-07T00:49:38;102493.20;;;6.06;100.00
72909;BME280;61051;62.624;17.950;2023-09-07T00:52:08;102494.07;;;6.02;100.00
72909;BME280;61051;62.624;17.950;2023-09-07T00:54:37;102490.65;;;5.98;100.00
72909;BME280;61051;62.624;17.950;2023-09-07T00:57:06;102489.84;;;6.03;100.00
72909;BME280;61051;62.624;17.950;2023-09-07T00:59:35;102490.75;;;6.17;100.00
72909;BME280;61051;62.624;17.950;2023-09-07T01:02:04;102488.74;;;6.07;100.00
72909;BME280;61051;62.624;17.950;2023-09-07T01:04:33;102491.09;;;6.14;100.00
72909;BME280;61051;62.624;17.950;2023-09-07T01:07:03;102494.29;;;5.99;99.38
72909;BME280;61051;62.624;17.950;2023-09-07T01:09:36;102492.63;;;5.87;100.00
72909;BME280;61051;62.624;17.950;2023-09-07T01:12:14;102492.74;;;5.87;100.00
72909;BME280;61051;62.624;17.950;2023-09-07T01:14:44;102491.39;;;5.97;100.00
72909;BME280;61051;62.624;17.950;2023-09-07T01:17:12;102480.66;;;5.90;100.00
72909;BME280;61051;62.624;17.950;2023-09-07T01:19:40;102478.58;;;5.90;100.00
72909;BME280;61051;62.624;17.950;2023-09-07T01:22:09;102482.62;;;5.92;100.00
72909;BME280;61051;62.624;17.950;2023-09-07T01:24:40;102489.70;;;6.10;100.00
72909;BME280;61051;62.624;17.950;2023-09-07T01:27:09;102490.53;;;6.03;100.00
72909;BME280;61051;62.624;17.950;2023-09-07T01:29:37;102491.28;;;5.89;98.90
72909;BME280;61051;62.624;17.950;2023-09-07T01:32:06;102485.81;;;5.78;98.86
72909;BME280;61051;62.624;17.950;2023-09-07T01:34:34;102481.67;;;5.73;100.00
72909;BME280;61051;62.624;17.950;2023-09-07T01:37:03;102487.02;;;5.74;100.00
72909;BME280;61051;62.624;17.950;2023-09-07T01:39:31;102493.52;;;5.67;100.00
72909;BME280;61051;62.624;17.950;2023-09-07T01:41:59;102490.43;;;5.55;100.00
72909;BME280;61051;62.624;17.950;2023-09-07T01:44:28;102483.63;;;5.54;100.00
72909;BME280;61051;62.624;17.950;2023-09-07T01:46:56;102475.59;;;5.65;100.00
72909;BME280;61051;62.624;17.950;2023-09-07T01:49:25;102471.26;;;5.72;100.00
72909;BME280;61051;62.624;17.950;2023-09-07T01:51:53;102473.91;;;5.77;100.00
72909;BME280;61051;62.624;17.950;2023-09-07T01:54:22;102473.19;;;5.56;99.21
72909;BME280;61051;62.624;17.950;2023-09-07T01:56:51;102470.32;;;5.53;100.00
72909;BME280;61051;62.624;17.950;2023-09-07T01:59:19;102465.41;;;5.54;100.00
72909;BME280;61051;62.624;17.950;2023-09-07T02:01:47;102464.50;;;5.50;100.00
72909;BME280;61051;62.624;17.950;2023-09-07T02:04:16;102458.28;;;5.55;100.00
72909;BME280;61051;62.624;17.950;2023-09-07T02:06:45;102457.28;;;5.61;100.00
72909;BME280;61051;62.624;17.950;2023-09-07T02:09:15;102459.68;;;5.53;100.00
72909;BME280;61051;62.624;17.950;2023-09-07T02:11:43;102465.12;;;5.39;100.00
72909;BME280;61051;62.624;17.950;2023-09-07T02:14:12;102470.04;;;5.38;100.00
72909;BME280;61051;62.624;17.950;2023-09-07T02:16:40;102464.08;;;5.36;100.00
72909;BME280;61051;62.624;17.950;2023-09-07T02:19:09;102455.76;;;5.47;100.00
72909;BME280;61051;62.624;17.950;2023-09-07T02:21:39;102450.86;;;5.42;100.00
72909;BME280;61051;62.624;17.950;2023-09-07T02:24:08;102449.79;;;5.53;100.00
72909;BME280;61051;62.624;17.950;2023-09-07T02:26:36;102444.80;;;5.54;100.00
72909;BME280;61051;62.624;17.950;2023-09-07T02:29:04;102439.63;;;5.52;100.00
72909;BME280;61051;62.624;17.950;2023-09-07T02:31:33;102437.35;;;5.44;100.00
72909;BME280;61051;62.624;17.950;2023-09-07T02:34:02;102440.90;;;5.58;100.00
72909;BME280;61051;62.624;17.950;2023-09-07T02:36:31;102446.64;;;5.73;100.00
72909;BME280;61051;62.624;17.950;2023-09-07T02:38:58;102443.79;;;5.84;100.00
72909;BME280;61051;62.624;17.950;2023-09-07T02:41:27;102446.10;;;5.54;98.40
72909;BME280;61051;62.624;17.950;2023-09-07T02:43:55;102452.35;;;5.44;99.90
72909;BME280;61051;62.624;17.950;2023-09-07T02:46:24;102452.19;;;5.42;99.75
72909;BME280;61051;62.624;17.950;2023-09-07T02:48:52;102455.13;;;5.33;99.95
72909;BME280;61051;62.624;17.950;2023-09-07T02:51:20;102459.80;;;5.29;100.00
72909;BME280;61051;62.624;17.950;2023-09-07T02:53:49;102458.96;;;5.24;100.00
72909;BME280;61051;62.624;17.950;2023-09-07T02:56:18;102457.07;;;5.18;100.00
72909;BME280;61051;62.624;17.950;2023-09-07T02:58:46;102445.02;;;5.25;100.00
72909;BME280;61051;62.624;17.950;2023-09-07T03:01:16;102439.01;;;5.45;100.00
72909;BME280;61051;62.624;17.950;2023-09-07T03:03:45;102445.18;;;5.55;100.00
72909;BME280;61051;62.624;17.950;2023-09-07T03:06:14;102447.73;;;5.57;100.00
72909;BME280;61051;62.624;17.950;2023-09-07T03:08:43;102442.55;;;5.48;100.00
72909;BME280;61051;62.624;17.950;2023-09-07T03:11:12;102442.79;;;5.48;100.00
72909;BME280;61051;62.624;17.950;2023-09-07T03:13:40;102442.08;;;5.62;100.00
72909;BME280;61051;62.624;17.950;2023-09-07T03:16:09;102439.25;;;5.58;100.00
72909;BME280;61051;62.624;17.950;2023-09-07T03:18:37;102437.63;;;5.55;100.00
72909;BME280;61051;62.624;17.950;2023-09-07T03:21:06;102441.98;;;5.50;100.00
72909;BME280;61051;62.624;17.950;2023-09-07T03:23:34;102441.85;;;5.29;98.97
72909;BME280;61051;62.624;17.950;2023-09-07T03:26:02;102439.05;;;5.07;100.00
72909;BME280;61051;62.624;17.950;2023-09-07T03:28:31;102439.25;;;5.10;100.00
72909;BME280;61051;62.624;17.950;2023-09-07T03:30:59;102426.89;;;4.96;100.00
72909;BME280;61051;62.624;17.950;2023-09-07T03:33:28;102422.00;;;5.03;100.00
72909;BME280;61051;62.624;17.950;2023-09-07T03:35:56;102428.07;;;5.16;100.00
72909;BME280;61051;62.624;17.950;2023-09-07T03:38:24;102418.39;;;5.16;100.00
72909;BME280;61051;62.624;17.950;2023-09-07T03:40:53;102408.94;;;5.30;100.00
72909;BME280;61051;62.624;17.950;2023-09-07T03:43:22;102398.36;;;5.51;100.00
72909;BME280;61051;62.624;17.950;2023-09-07T03:45:50;102396.73;;;5.42;100.00
72909;BME280;61051;62.624;17.950;2023-09-07T03:48:19;102403.62;;;5.31;100.00
72909;BME280;61051;62.624;17.950;2023-09-07T03:50:47;102410.59;;;5.18;100.00
72909;BME280;61051;62.624;17.950;2023-09-07T03:53:16;102412.37;;;5.26;100.00
72909;BME280;61051;62.624;17.950;2023-09-07T03:55:45;102414.54;;;5.29;100.00
72909;BME280;61051;62.624;17.950;2023-09-07T03:58:14;102406.20;;;5.39;100.00
72909;BME280;61051;62.624;17.950;2023-09-07T04:03:18;102400.13;;;5.37;100.00
72909;BME280;61051;62.624;17.950;2023-09-07T04:05:46;102400.34;;;5.31;100.00
72909;BME280;61051;62.624;17.950;2023-09-07T04:08:15;102404.08;;;5.40;100.00
72909;BME280;61051;62.624;17.950;2023-09-07T04:10:44;102412.99;;;5.28;100.00
72909;BME280;61051;62.624;17.950;2023-09-07T04:13:12;102420.59;;;5.34;100.00
72909;BME280;61051;62.624;17.950;2023-09-07T04:15:41;102427.14;;;5.39;100.00
72909;BME280;61051;62.624;17.950;2023-09-07T04:18:11;102428.36;;;5.28;100.00
72909;BME280;61051;62.624;17.950;2023-09-07T04:20:39;102428.62;;;5.45;100.00
72909;BME280;61051;62.624;17.950;2023-09-07T04:23:07;102428.33;;;5.43;100.00
72909;BME280;61051;62.624;17.950;2023-09-07T04:25:36;102431.80;;;5.41;100.00
72909;BME280;61051;62.624;17.950;2023-09-07T04:28:05;102433.16;;;5.60;100.00
72909;BME280;61051;62.624;17.950;2023-09-07T04:30:33;102440.95;;;5.46;100.00
72909;BME280;61051;62.624;17.950;2023-09-07T04:33:01;102445.09;;;5.46;100.00
72909;BME280;61051;62.624;17.950;2023-09-07T04:35:29;102444.63;;;5.36;100.00
72909;BME280;61051;62.624;17.950;2023-09-07T04:37:58;102431.21;;;5.49;100.00
72909;BME280;61051;62.624;17.950;2023-09-07T04:40:26;102425.95;;;5.58;100.00
72909;BME280;61051;62.624;17.950;2023-09-07T04:42:55;102425.75;;;5.54;100.00
72909;BME280;61051;62.624;17.950;2023-09-07T04:45:25;102412.07;;;5.60;100.00
72909;BME280;61051;62.624;17.950;2023-09-07T04:47:54;102405.48;;;5.61;100.00
72909;BME280;61051;62.624;17.950;2023-09-07T04:50:23;102396.78;;;5.70;100.00
72909;BME280;61051;62.624;17.950;2023-09-07T04:52:53;102397.46;;;5.69;100.00
72909;BME280;61051;62.624;17.950;2023-09-07T04:55:22;102392.71;;;5.83;100.00
72909;BME280;61051;62.624;17.950;2023-09-07T04:57:50;102376.11;;;5.86;100.00
72909;BME280;61051;62.624;17.950;2023-09-07T05:00:18;102365.26;;;6.03;100.00
72909;BME280;61051;62.624;17.950;2023-09-07T05:02:47;102363.88;;;6.08;100.00
72909;BME280;61051;62.624;17.950;2023-09-07T05:05:15;102362.93;;;6.20;100.00
72909;BME280;61051;62.624;17.950;2023-09-07T05:07:44;102363.56;;;6.17;100.00
72909;BME280;61051;62.624;17.950;2023-09-07T05:10:12;102362.65;;;6.20;100.00
72909;BME280;61051;62.624;17.950;2023-09-07T05:12:40;102366.11;;;6.30;100.00
72909;BME280;61051;62.624;17.950;2023-09-07T05:15:09;102373.70;;;6.20;100.00
72909;BME280;61051;62.624;17.950;2023-09-07T05:17:37;102380.02;;;6.28;100.00
72909;BME280;61051;62.624;17.950;2023-09-07T05:20:07;102384.61;;;6.31;100.00
72909;BME280;61051;62.624;17.950;2023-09-07T05:22:35;102391.52;;;6.38;100.00
72909;BME280;61051;62.624;17.950;2023-09-07T05:25:04;102390.22;;;6.54;100.00
72909;BME280;61051;62.624;17.950;2023-09-07T05:27:33;102387.04;;;6.70;100.00
72909;BME280;61051;62.624;17.950;2023-09-07T05:30:03;102384.83;;;6.76;100.00
72909;BME280;61051;62.624;17.950;2023-09-07T05:32:33;102379.74;;;6.87;100.00
72909;BME280;61051;62.624;17.950;2023-09-07T05:35:01;102384.73;;;6.90;100.00
72909;BME280;61051;62.624;17.950;2023-09-07T05:37:29;102376.85;;;6.91;100.00
72909;BME280;61051;62.624;17.950;2023-09-07T05:39:58;102369.34;;;7.18;100.00
72909;BME280;61051;62.624;17.950;2023-09-07T05:42:26;102366.27;;;7.34;100.00
72909;BME280;61051;62.624;17.950;2023-09-07T05:44:56;102372.91;;;7.35;100.00
72909;BME280;61051;62.624;17.950;2023-09-07T05:47:25;102370.09;;;7.47;99.60
72909;BME280;61051;62.624;17.950;2023-09-07T05:49:54;102371.14;;;7.51;100.00
72909;BME280;61051;62.624;17.950;2023-09-07T05:52:23;102381.84;;;7.64;99.86
72909;BME280;61051;62.624;17.950;2023-09-07T05:54:52;102384.17;;;7.62;97.84
72909;BME280;61051;62.624;17.950;2023-09-07T05:57:20;102391.46;;;7.69;97.65
72909;BME280;61051;62.624;17.950;2023-09-07T05:59:49;102391.40;;;8.03;99.01
72909;BME280;61051;62.624;17.950;2023-09-07T06:02:17;102390.08;;;8.17;97.72
72909;BME280;61051;62.624;17.950;2023-09-07T06:04:46;102392.85;;;8.42;96.89
72909;BME280;61051;62.624;17.950;2023-09-07T06:07:14;102386.81;;;8.33;96.56
72909;BME280;61051;62.624;17.950;2023-09-07T06:09:42;102382.80;;;8.51;96.95
72909;BME280;61051;62.624;17.950;2023-09-07T06:12:10;102384.24;;;8.69;95.73
72909;BME280;61051;62.624;17.950;2023-09-07T06:14:39;102380.37;;;8.84;95.66
72909;BME280;61051;62.624;17.950;2023-09-07T06:17:07;102374.08;;;9.29;92.91
72909;BME280;61051;62.624;17.950;2023-09-07T06:19:35;102376.02;;;9.22;93.01
72909;BME280;61051;62.624;17.950;2023-09-07T06:22:04;102379.85;;;9.22;93.73
72909;BME280;61051;62.624;17.950;2023-09-07T06:24:33;102382.09;;;9.23;94.56
72909;BME280;61051;62.624;17.950;2023-09-07T06:27:01;102379.84;;;9.46;94.76
72909;BME280;61051;62.624;17.950;2023-09-07T06:29:30;102376.03;;;9.61;94.94
72909;BME280;61051;62.624;17.950;2023-09-07T06:31:58;102372.18;;;9.88;91.70
72909;BME280;61051;62.624;17.950;2023-09-07T06:34:26;102365.68;;;10.05;91.26
72909;BME280;61051;62.624;17.950;2023-09-07T06:36:56;102357.58;;;9.89;90.96
72909;BME280;61051;62.624;17.950;2023-09-07T06:39:24;102354.69;;;9.76;91.47
72909;BME280;61051;62.624;17.950;2023-09-07T06:41:53;102351.80;;;9.91;91.73
72909;BME280;61051;62.624;17.950;2023-09-07T06:44:23;102353.97;;;9.84;91.82
72909;BME280;61051;62.624;17.950;2023-09-07T06:46:51;102356.90;;;10.13;92.14
72909;BME280;61051;62.624;17.950;2023-09-07T06:49:20;102356.03;;;10.14;92.12
72909;BME280;61051;62.624;17.950;2023-09-07T06:51:48;102365.94;;;10.18;91.23
72909;BME280;61051;62.624;17.950;2023-09-07T06:54:16;102378.10;;;10.18;90.81
72909;BME280;61051;62.624;17.950;2023-09-07T06:56:44;102376.38;;;10.28;92.63
72909;BME280;61051;62.624;17.950;2023-09-07T06:59:13;102368.01;;;10.28;91.56
72909;BME280;61051;62.624;17.950;2023-09-07T07:01:41;102362.40;;;10.54;89.33
72909;BME280;61051;62.624;17.950;2023-09-07T07:04:09;102362.09;;;10.89;88.48
72909;BME280;61051;62.624;17.950;2023-09-07T07:06:37;102356.49;;;11.00;88.67
72909;BME280;61051;62.624;17.950;2023-09-07T07:09:06;102348.82;;;11.30;87.68
72909;BME280;61051;62.624;17.950;2023-09-07T07:11:35;102351.61;;;11.35;86.27
72909;BME280;61051;62.624;17.950;2023-09-07T07:14:04;102350.64;;;11.43;86.91
72909;BME280;61051;62.624;17.950;2023-09-07T07:16:32;102349.90;;;11.66;85.34
72909;BME280;61051;62.624;17.950;2023-09-07T07:19:00;102345.15;;;11.89;84.35
72909;BME280;61051;62.624;17.950;2023-09-07T07:21:28;102344.42;;;12.05;84.70
72909;BME280;61051;62.624;17.950;2023-09-07T07:23:57;102344.58;;;12.22;83.88
72909;BME280;61051;62.624;17.950;2023-09-07T07:26:25;102341.13;;;12.10;82.32
72909;BME280;61051;62.624;17.950;2023-09-07T07:28:54;102342.17;;;12.20;82.73
72909;BME280;61051;62.624;17.950;2023-09-07T07:31:23;102345.65;;;12.21;82.29
72909;BME280;61051;62.624;17.950;2023-09-07T07:33:53;102342.84;;;12.08;82.12
72909;BME280;61051;62.624;17.950;2023-09-07T07:36:21;102342.08;;;12.12;82.04
72909;BME280;61051;62.624;17.950;2023-09-07T07:38:50;102337.01;;;12.29;81.27
72909;BME280;61051;62.624;17.950;2023-09-07T07:41:18;102336.43;;;12.64;81.55
72909;BME280;61051;62.624;17.950;2023-09-07T07:43:46;102326.17;;;12.87;77.98
72909;BME280;61051;62.624;17.950;2023-09-07T07:46:15;102313.55;;;13.13;77.75
72909;BME280;61051;62.624;17.950;2023-09-07T07:48:44;102305.93;;;13.52;75.98
72909;BME280;61051;62.624;17.950;2023-09-07T07:51:13;102302.30;;;13.57;75.35
72909;BME280;61051;62.624;17.950;2023-09-07T07:53:41;102289.28;;;13.77;74.32
72909;BME280;61051;62.624;17.950;2023-09-07T07:56:14;102289.47;;;13.82;73.76
72909;BME280;61051;62.624;17.950;2023-09-07T07:58:43;102290.43;;;14.02;74.80
72909;BME280;61051;62.624;17.950;2023-09-07T08:01:15;102288.02;;;14.25;72.12
72909;BME280;61051;62.624;17.950;2023-09-07T08:03:43;102285.31;;;14.61;72.77
72909;BME280;61051;62.624;17.950;2023-09-07T08:06:12;102281.74;;;14.91;70.71
72909;BME280;61051;62.624;17.950;2023-09-07T08:08:41;102278.89;;;14.89;70.59
72909;BME280;61051;62.624;17.950;2023-09-07T08:11:09;102285.20;;;14.74;71.07
72909;BME280;61051;62.624;17.950;2023-09-07T08:13:37;102281.61;;;14.83;72.25
72909;BME280;61051;62.624;17.950;2023-09-07T08:16:06;102282.29;;;14.95;72.22
72909;BME280;61051;62.624;17.950;2023-09-07T08:18:34;102286.81;;;15.16;71.08
72909;BME280;61051;62.624;17.950;2023-09-07T08:21:03;102294.67;;;15.31;68.88
72909;BME280;61051;62.624;17.950;2023-09-07T08:23:31;102296.31;;;15.75;68.38
72909;BME280;61051;62.624;17.950;2023-09-07T08:25:59;102290.85;;;16.17;64.49
72909;BME280;61051;62.624;17.950;2023-09-07T08:28:28;102285.98;;;16.43;61.01
72909;BME280;61051;62.624;17.950;2023-09-07T08:30:57;102287.09;;;16.59;60.31
72909;BME280;61051;62.624;17.950;2023-09-07T08:33:25;102289.32;;;16.48;62.11
72909;BME280;61051;62.624;17.950;2023-09-07T08:35:56;102286.90;;;16.60;60.95
72909;BME280;61051;62.624;17.950;2023-09-07T08:38:25;102271.40;;;16.98;60.43
72909;BME280;61051;62.624;17.950;2023-09-07T08:40:55;102277.69;;;17.49;59.09
72909;BME280;61051;62.624;17.950;2023-09-07T08:43:23;102281.96;;;17.71;56.67
72909;BME280;61051;62.624;17.950;2023-09-07T08:46:01;102277.26;;;17.94;56.66
72909;BME280;61051;62.624;17.950;2023-09-07T08:48:33;102270.41;;;18.31;54.39
72909;BME280;61051;62.624;17.950;2023-09-07T08:51:03;102265.54;;;18.43;53.67
72909;BME280;61051;62.624;17.950;2023-09-07T08:53:33;102265.23;;;18.57;52.49
72909;BME280;61051;62.624;17.950;2023-09-07T08:56:01;102262.31;;;18.61;54.75
72909;BME280;61051;62.624;17.950;2023-09-07T08:58:31;102258.10;;;18.41;54.42
72909;BME280;61051;62.624;17.950;2023-09-07T09:00:59;102261.14;;;18.47;52.53
72909;BME280;61051;62.624;17.950;2023-09-07T09:03:27;102260.02;;;18.49;53.03
72909;BME280;61051;62.624;17.950;2023-09-07T09:05:56;102254.32;;;18.61;52.47
72909;BME280;61051;62.624;17.950;2023-09-07T09:08:25;102247.86;;;18.53;52.42
72909;BME280;61051;62.624;17.950;2023-09-07T09:11:02;102247.96;;;18.48;53.27
72909;BME280;61051;62.624;17.950;2023-09-07T09:13:31;102257.02;;;18.46;52.94
72909;BME280;61051;62.624;17.950;2023-09-07T09:15:59;102263.92;;;18.47;53.03
72909;BME280;61051;62.624;17.950;2023-09-07T09:18:29;102260.29;;;18.44;53.13
72909;BME280;61051;62.624;17.950;2023-09-07T09:20:58;102258.39;;;18.29;54.00
72909;BME280;61051;62.624;17.950;2023-09-07T09:23:30;102256.35;;;18.29;55.08
72909;BME280;61051;62.624;17.950;2023-09-07T09:26:00;102251.10;;;18.31;54.60
72909;BME280;61051;62.624;17.950;2023-09-07T09:28:27;102248.74;;;18.45;54.23
72909;BME280;61051;62.624;17.950;2023-09-07T09:30:56;102252.03;;;18.29;55.64
72909;BME280;61051;62.624;17.950;2023-09-07T09:33:25;102252.25;;;18.22;54.59
72909;BME280;61051;62.624;17.950;2023-09-07T09:35:55;102263.12;;;17.99;55.35
72909;BME280;61051;62.624;17.950;2023-09-07T09:38:23;102261.97;;;18.04;55.98
72909;BME280;61051;62.624;17.950;2023-09-07T09:40:54;102257.24;;;17.95;55.75
72909;BME280;61051;62.624;17.950;2023-09-07T09:43:24;102250.03;;;17.97;55.72
72909;BME280;61051;62.624;17.950;2023-09-07T09:45:53;102241.68;;;17.80;56.05
72909;BME280;61051;62.624;17.950;2023-09-07T09:48:23;102237.79;;;17.86;54.70
72909;BME280;61051;62.624;17.950;2023-09-07T09:50:51;102229.58;;;17.82;53.72
72909;BME280;61051;62.624;17.950;2023-09-07T09:53:19;102217.37;;;18.16;53.57
72909;BME280;61051;62.624;17.950;2023-09-07T09:55:49;102216.94;;;18.63;54.41
72909;BME280;61051;62.624;17.950;2023-09-07T09:58:18;102212.38;;;19.25;49.25
72909;BME280;61051;62.624;17.950;2023-09-07T10:03:37;102206.51;;;18.95;49.39
72909;BME280;61051;62.624;17.950;2023-09-07T10:06:08;102210.26;;;18.85;50.41
72909;BME280;61051;62.624;17.950;2023-09-07T10:08:37;102206.98;;;18.69;51.44
72909;BME280;61051;62.624;17.950;2023-09-07T10:11:08;102209.95;;;18.13;53.83
72909;BME280;61051;62.624;17.950;2023-09-07T10:13:37;102203.71;;;18.18;53.22
72909;BME280;61051;62.624;17.950;2023-09-07T10:16:06;102200.06;;;18.24;52.90
72909;BME280;61051;62.624;17.950;2023-09-07T10:18:36;102198.73;;;18.65;52.00
72909;BME280;61051;62.624;17.950;2023-09-07T10:21:05;102199.62;;;19.18;51.74
72909;BME280;61051;62.624;17.950;2023-09-07T10:23:36;102205.07;;;20.33;50.74
72909;BME280;61051;62.624;17.950;2023-09-07T10:26:05;102198.37;;;20.81;46.96
72909;BME280;61051;62.624;17.950;2023-09-07T10:28:38;102185.31;;;20.80;45.09
72909;BME280;61051;62.624;17.950;2023-09-07T10:31:07;102196.93;;;20.39;45.99
72909;BME280;61051;62.624;17.950;2023-09-07T10:33:41;102199.01;;;20.56;47.23
72909;BME280;61051;62.624;17.950;2023-09-07T10:36:20;102201.30;;;20.32;46.84
72909;BME280;61051;62.624;17.950;2023-09-07T10:38:49;102185.18;;;21.23;44.90
72909;BME280;61051;62.624;17.950;2023-09-07T10:41:19;102187.54;;;21.72;44.97
72909;BME280;61051;62.624;17.950;2023-09-07T10:43:48;102190.85;;;23.18;40.74
72909;BME280;61051;62.624;17.950;2023-09-07T10:46:19;102195.95;;;21.71;42.09
72909;BME280;61051;62.624;17.950;2023-09-07T10:48:49;102201.98;;;20.08;45.99
72909;BME280;61051;62.624;17.950;2023-09-07T10:51:18;102191.94;;;19.37;49.94
72909;BME280;61051;62.624;17.950;2023-09-07T10:53:48;102177.01;;;19.11;49.40
72909;BME280;61051;62.624;17.950;2023-09-07T10:56:18;102178.09;;;19.29;50.18
72909;BME280;61051;62.624;17.950;2023-09-07T10:58:46;102181.57;;;19.47;49.97
72909;BME280;61051;62.624;17.950;2023-09-07T11:01:14;102180.59;;;19.63;49.51
72909;BME280;61051;62.624;17.950;2023-09-07T11:03:42;102173.54;;;19.85;48.64
72909;BME280;61051;62.624;17.950;2023-09-07T11:06:13;102166.51;;;20.36;47.47
72909;BME280;61051;62.624;17.950;2023-09-07T11:08:43;102162.33;;;22.62;42.13
72909;BME280;61051;62.624;17.950;2023-09-07T11:11:13;102171.50;;;22.96;41.90
72909;BME280;61051;62.624;17.950;2023-09-07T11:13:42;102178.52;;;21.95;43.11
72909;BME280;61051;62.624;17.950;2023-09-07T11:16:10;102180.77;;;22.20;42.62
72909;BME280;61051;62.624;17.950;2023-09-07T11:18:39;102174.09;;;20.58;46.47
72909;BME280;61051;62.624;17.950;2023-09-07T11:21:07;102175.62;;;20.13;47.65
72909;BME280;61051;62.624;17.950;2023-09-07T11:23:37;102169.93;;;20.86;46.18
72909;BME280;61051;62.624;17.950;2023-09-07T11:26:07;102172.37;;;22.14;43.52
72909;BME280;61051;62.624;17.950;2023-09-07T11:28:35;102173.33;;;22.13;43.48
72909;BME280;61051;62.624;17.950;2023-09-07T11:31:03;102167.69;;;24.34;38.49
72909;BME280;61051;62.624;17.950;2023-09-07T11:33:32;102154.81;;;26.22;34.62
72909;BME280;61051;62.624;17.950;2023-09-07T11:36:03;102161.53;;;23.95;38.28
72909;BME280;61051;62.624;17.950;2023-09-07T11:38:36;102156.55;;;22.98;40.67
72909;BME280;61051;62.624;17.950;2023-09-07T11:41:04;102150.57;;;24.19;40.05
72909;BME280;61051;62.624;17.950;2023-09-07T11:43:32;102154.33;;;24.60;38.40
72909;BME280;61051;62.624;17.950;2023-09-07T11:46:01;102137.76;;;26.94;34.53
72909;BME280;61051;62.624;17.950;2023-09-07T11:48:29;102134.10;;;28.29;31.56
72909;BME280;61051;62.624;17.950;2023-09-07T11:50:57;102127.37;;;29.94;29.34
72909;BME280;61051;62.624;17.950;2023-09-07T11:53:25;102127.38;;;29.96;28.07
72909;BME280;61051;62.624;17.950;2023-09-07T11:55:53;102122.73;;;30.14;27.95
72909;BME280;61051;62.624;17.950;2023-09-07T11:58:21;102115.29;;;30.13;27.60
72909;BME280;61051;62.624;17.950;2023-09-07T12:00:49;102114.13;;;29.92;27.77
72909;BME280;61051;62.624;17.950;2023-09-07T12:03:18;102111.41;;;31.22;25.75
72909;BME280;61051;62.624;17.950;2023-09-07T12:05:47;102101.50;;;31.97;26.15
72909;BME280;61051;62.624;17.950;2023-09-07T12:08:16;102099.08;;;31.93;25.09
72909;BME280;61051;62.624;17.950;2023-09-07T12:10:44;102092.28;;;32.53;24.95
72909;BME280;61051;62.624;17.950;2023-09-07T12:13:12;102085.11;;;30.42;27.35
72909;BME280;61051;62.624;17.950;2023-09-07T12:15:40;102082.55;;;29.05;28.94
72909;BME280;61051;62.624;17.950;2023-09-07T12:18:08;102076.27;;;29.92;28.18
72909;BME280;61051;62.624;17.950;2023-09-07T12:20:36;102078.99;;;28.94;29.44
72909;BME280;61051;62.624;17.950;2023-09-07T12:23:06;102077.59;;;27.80;31.59
72909;BME280;61051;62.624;17.950;2023-09-07T12:25:34;102067.67;;;26.57;34.16
72909;BME280;61051;62.624;17.950;2023-09-07T12:28:02;102066.05;;;25.69;35.76
72909;BME280;61051;62.624;17.950;2023-09-07T12:30:30;102070.68;;;24.63;38.81
72909;BME280;61051;62.624;17.950;2023-09-07T12:32:58;102066.86;;;24.54;39.55
72909;BME280;61051;62.624;17.950;2023-09-07T12:35:26;102064.00;;;24.86;38.19
72909;BME280;61051;62.624;17.950;2023-09-07T12:37:54;102064.90;;;25.03;38.30
72909;BME280;61051;62.624;17.950;2023-09-07T12:40:22;102066.85;;;24.29;39.26
72909;BME280;61051;62.624;17.950;2023-09-07T12:42:50;102067.89;;;24.18;40.76
72909;BME280;61051;62.624;17.950;2023-09-07T12:45:18;102076.47;;;24.05;41.55
72909;BME280;61051;62.624;17.950;2023-09-07T12:47:47;102067.31;;;25.24;39.08
72909;BME280;61051;62.624;17.950;2023-09-07T12:50:16;102061.43;;;26.10;37.95
72909;BME280;61051;62.624;17.950;2023-09-07T12:52:45;102064.96;;;28.81;32.65